sensor_id;sensor_type;location;lat;lon;timestamp;temperature;humidity
43225;DHT22;28834;48.720;9.208;2022-08-20T00:02:24;19.20;99.90
43225;DHT22;28834;48.720;9.208;2022-08-20T00:04:50;19.20;99.90
43225;DHT22;28834;48.720;9.208;2022-08-20T00:07:16;19.20;99.90
43225;DHT22;28834;48.720;9.208;2022-08-20T00:09:42;19.20;99.90
43225;DHT22;28834;48.720;9.208;2022-08-20T00:12:09;19.10;99.90
43225;DHT22;28834;48.720;9.208;2022-08-20T00:14:36;19.00;99.90
43225;DHT22;28834;48.720;9.208;2022-08-20T00:17:03;19.00;99.90
43225;DHT22;28834;48.720;9.208;2022-08-20T00:19:29;18.90;99.90
43225;DHT22;28834;48.720;9.208;2022-08-20T00:21:55;18.90;99.90
43225;DHT22;28834;48.720;9.208;2022-08-20T00:24:21;18.70;99.90
43225;DHT22;28834;48.720;9.208;2022-08-20T00:26:47;18.70;99.90
43225;DHT22;28834;48.720;9.208;2022-08-20T00:29:12;18.60;99.90
43225;DHT22;28834;48.720;9.208;2022-08-20T00:31:37;18.50;99.90
43225;DHT22;28834;48.720;9.208;2022-08-20T00:34:03;18.50;99.90
43225;DHT22;28834;48.720;9.208;2022-08-20T00:36:29;18.40;99.90
43225;DHT22;28834;48.720;9.208;2022-08-20T00:38:54;18.40;99.90
43225;DHT22;28834;48.720;9.208;2022-08-20T00:41:24;18.40;99.90
43225;DHT22;28834;48.720;9.208;2022-08-20T00:44:02;18.40;99.90
43225;DHT22;28834;48.720;9.208;2022-08-20T00:46:30;18.40;99.90
43225;DHT22;28834;48.720;9.208;2022-08-20T00:48:56;18.40;99.90
43225;DHT22;28834;48.720;9.208;2022-08-20T00:51:31;18.30;99.90
43225;DHT22;28834;48.720;9.208;2022-08-20T00:54:06;18.40;99.90
43225;DHT22;28834;48.720;9.208;2022-08-20T00:56:36;18.40;99.90
43225;DHT22;28834;48.720;9.208;2022-08-20T00:59:04;18.40;99.90
43225;DHT22;28834;48.720;9.208;2022-08-20T01:01:30;18.50;99.90
43225;DHT22;28834;48.720;9.208;2022-08-20T01:03:59;18.50;99.90
43225;DHT22;28834;48.720;9.208;2022-08-20T01:06:24;18.50;99.90
43225;DHT22;28834;48.720;9.208;2022-08-20T01:08:50;18.50;99.90
43225;DHT22;28834;48.720;9.208;2022-08-20T01:11:16;18.60;99.90
43225;DHT22;28834;48.720;9.208;2022-08-20T01:13:45;18.60;99.90
43225;DHT22;28834;48.720;9.208;2022-08-20T01:16:27;18.60;99.90
43225;DHT22;28834;48.720;9.208;2022-08-20T01:18:53;18.60;99.90
43225;DHT22;28834;48.720;9.208;2022-08-20T01:21:24;18.60;99.90
43225;DHT22;28834;48.720;9.208;2022-08-20T01:24:05;18.60;99.90
43225;DHT22;28834;48.720;9.208;2022-08-20T01:26:38;18.60;99.90
43225;DHT22;28834;48.720;9.208;2022-08-20T01:29:11;18.60;99.90
43225;DHT22;28834;48.720;9.208;2022-08-20T01:31:39;18.70;99.90
43225;DHT22;28834;48.720;9.208;2022-08-20T01:34:09;18.60;99.90
43225;DHT22;28834;48.720;9.208;2022-08-20T01:36:48;18.60;99.90
43225;DHT22;28834;48.720;9.208;2022-08-20T01:39:23;18.60;99.90
43225;DHT22;28834;48.720;9.208;2022-08-20T01:44:36;18.60;99.90
43225;DHT22;28834;48.720;9.208;2022-08-20T01:47:18;18.50;99.90
43225;DHT22;28834;48.720;9.208;2022-08-20T01:49:47;18.50;99.90
43225;DHT22;28834;48.720;9.208;2022-08-20T01:52:38;18.50;99.90
43225;DHT22;28834;48.720;9.208;2022-08-20T01:55:06;18.50;99.90
43225;DHT22;28834;48.720;9.208;2022-08-20T01:57:33;18.50;99.90
43225;DHT22;28834;48.720;9.208;2022-08-20T01:59:59;18.40;99.90
43225;DHT22;28834;48.720;9.208;2022-08-20T02:02:26;18.40;99.90
43225;DHT22;28834;48.720;9.208;2022-08-20T02:04:52;18.40;99.90
43225;DHT22;28834;48.720;9.208;2022-08-20T02:07:20;18.40;99.90
43225;DHT22;28834;48.720;9.208;2022-08-20T02:09:47;18.30;99.90
43225;DHT22;28834;48.720;9.208;2022-08-20T02:12:13;18.30;99.90
43225;DHT22;28834;48.720;9.208;2022-08-20T02:14:45;18.30;99.90
43225;DHT22;28834;48.720;9.208;2022-08-20T02:17:11;18.20;99.90
43225;DHT22;28834;48.720;9.208;2022-08-20T02:19:43;18.20;99.90
43225;DHT22;28834;48.720;9.208;2022-08-20T02:22:39;18.20;99.90
43225;DHT22;28834;48.720;9.208;2022-08-20T02:25:08;18.20;99.90
43225;DHT22;28834;48.720;9.208;2022-08-20T02:27:35;18.10;99.90
43225;DHT22;28834;48.720;9.208;2022-08-20T02:30:03;18.10;99.90
43225;DHT22;28834;48.720;9.208;2022-08-20T02:32:29;18.10;99.90
43225;DHT22;28834;48.720;9.208;2022-08-20T02:34:54;18.10;99.90
43225;DHT22;28834;48.720;9.208;2022-08-20T02:37:20;18.10;99.90
43225;DHT22;28834;48.720;9.208;2022-08-20T02:39:46;18.00;99.90
43225;DHT22;28834;48.720;9.208;2022-08-20T02:42:11;18.00;99.90
43225;DHT22;28834;48.720;9.208;2022-08-20T02:44:38;18.00;99.90
43225;DHT22;28834;48.720;9.208;2022-08-20T02:47:06;18.00;99.90
43225;DHT22;28834;48.720;9.208;2022-08-20T02:49:31;18.00;99.90
43225;DHT22;28834;48.720;9.208;2022-08-20T02:51:57;18.00;99.90
43225;DHT22;28834;48.720;9.208;2022-08-20T02:54:23;17.90;99.90
43225;DHT22;28834;48.720;9.208;2022-08-20T02:56:49;17.90;99.90
43225;DHT22;28834;48.720;9.208;2022-08-20T02:59:16;17.90;99.90
43225;DHT22;28834;48.720;9.208;2022-08-20T03:01:42;17.90;99.90
43225;DHT22;28834;48.720;9.208;2022-08-20T03:04:08;17.90;99.90
43225;DHT22;28834;48.720;9.208;2022-08-20T03:06:34;17.90;99.90
43225;DHT22;28834;48.720;9.208;2022-08-20T03:08:59;18.00;99.90
43225;DHT22;28834;48.720;9.208;2022-08-20T03:11:25;18.00;99.90
43225;DHT22;28834;48.720;9.208;2022-08-20T03:13:50;18.00;99.90
43225;DHT22;28834;48.720;9.208;2022-08-20T03:16:17;18.00;99.90
43225;DHT22;28834;48.720;9.208;2022-08-20T03:18:44;17.90;99.90
43225;DHT22;28834;48.720;9.208;2022-08-20T03:21:10;17.90;99.90
43225;DHT22;28834;48.720;9.208;2022-08-20T03:23:38;17.90;99.90
43225;DHT22;28834;48.720;9.208;2022-08-20T03:26:07;17.90;99.90
43225;DHT22;28834;48.720;9.208;2022-08-20T03:28:33;17.80;99.90
43225;DHT22;28834;48.720;9.208;2022-08-20T03:30:59;17.80;99.90
43225;DHT22;28834;48.720;9.208;2022-08-20T03:33:26;17.80;99.90
43225;DHT22;28834;48.720;9.208;2022-08-20T03:35:51;17.80;99.90
43225;DHT22;28834;48.720;9.208;2022-08-20T03:38:21;17.70;99.90
43225;DHT22;28834;48.720;9.208;2022-08-20T03:40:48;17.70;99.90
43225;DHT22;28834;48.720;9.208;2022-08-20T03:43:14;17.60;99.90
43225;DHT22;28834;48.720;9.208;2022-08-20T03:45:42;17.60;99.90
43225;DHT22;28834;48.720;9.208;2022-08-20T03:48:11;17.60;99.90
43225;DHT22;28834;48.720;9.208;2022-08-20T03:50:37;17.50;99.90
43225;DHT22;28834;48.720;9.208;2022-08-20T03:53:04;17.50;99.90
43225;DHT22;28834;48.720;9.208;2022-08-20T03:55:30;17.50;99.90
43225;DHT22;28834;48.720;9.208;2022-08-20T03:57:58;17.50;99.90
43225;DHT22;28834;48.720;9.208;2022-08-20T04:03:04;17.60;99.90
43225;DHT22;28834;48.720;9.208;2022-08-20T04:05:30;17.50;99.90
43225;DHT22;28834;48.720;9.208;2022-08-20T04:07:58;17.60;99.90
43225;DHT22;28834;48.720;9.208;2022-08-20T04:10:24;17.60;99.90
43225;DHT22;28834;48.720;9.208;2022-08-20T04:12:51;17.70;99.90
43225;DHT22;28834;48.720;9.208;2022-08-20T04:15:17;17.70;99.90
43225;DHT22;28834;48.720;9.208;2022-08-20T04:17:45;17.70;99.90
43225;DHT22;28834;48.720;9.208;2022-08-20T04:20:17;17.70;99.90
43225;DHT22;28834;48.720;9.208;2022-08-20T04:22:46;17.70;99.90
43225;DHT22;28834;48.720;9.208;2022-08-20T04:25:12;17.70;99.90
43225;DHT22;28834;48.720;9.208;2022-08-20T04:27:38;17.70;99.90
43225;DHT22;28834;48.720;9.208;2022-08-20T04:30:07;17.80;99.90
43225;DHT22;28834;48.720;9.208;2022-08-20T04:32:39;17.70;99.90
43225;DHT22;28834;48.720;9.208;2022-08-20T04:35:07;17.80;99.90
43225;DHT22;28834;48.720;9.208;2022-08-20T04:37:33;17.80;99.90
43225;DHT22;28834;48.720;9.208;2022-08-20T04:40:03;17.80;99.90
43225;DHT22;28834;48.720;9.208;2022-08-20T04:42:48;17.70;99.90
43225;DHT22;28834;48.720;9.208;2022-08-20T04:45:13;17.70;99.90
43225;DHT22;28834;48.720;9.208;2022-08-20T04:47:39;17.70;99.90
43225;DHT22;28834;48.720;9.208;2022-08-20T04:50:08;17.70;99.90
43225;DHT22;28834;48.720;9.208;2022-08-20T04:52:34;17.70;99.90
43225;DHT22;28834;48.720;9.208;2022-08-20T04:55:00;17.70;99.90
43225;DHT22;28834;48.720;9.208;2022-08-20T04:57:26;17.70;99.90
43225;DHT22;28834;48.720;9.208;2022-08-20T04:59:52;17.70;99.90
43225;DHT22;28834;48.720;9.208;2022-08-20T05:02:19;17.70;99.90
43225;DHT22;28834;48.720;9.208;2022-08-20T05:04:44;17.70;99.90
43225;DHT22;28834;48.720;9.208;2022-08-20T05:07:15;17.70;99.90
43225;DHT22;28834;48.720;9.208;2022-08-20T05:09:42;17.70;99.90
43225;DHT22;28834;48.720;9.208;2022-08-20T05:12:08;17.70;99.90
43225;DHT22;28834;48.720;9.208;2022-08-20T05:14:34;17.70;99.90
43225;DHT22;28834;48.720;9.208;2022-08-20T05:17:04;17.70;99.90
43225;DHT22;28834;48.720;9.208;2022-08-20T05:19:31;17.80;99.90
43225;DHT22;28834;48.720;9.208;2022-08-20T05:21:57;17.80;99.90
43225;DHT22;28834;48.720;9.208;2022-08-20T05:24:24;17.80;99.90
43225;DHT22;28834;48.720;9.208;2022-08-20T05:26:50;17.80;99.90
43225;DHT22;28834;48.720;9.208;2022-08-20T05:29:16;17.80;99.90
43225;DHT22;28834;48.720;9.208;2022-08-20T05:31:42;17.80;99.90
43225;DHT22;28834;48.720;9.208;2022-08-20T05:34:09;17.80;99.90
43225;DHT22;28834;48.720;9.208;2022-08-20T05:36:36;17.80;99.90
43225;DHT22;28834;48.720;9.208;2022-08-20T05:39:03;17.70;99.90
43225;DHT22;28834;48.720;9.208;2022-08-20T05:41:29;17.70;99.90
43225;DHT22;28834;48.720;9.208;2022-08-20T05:43:55;17.70;99.90
43225;DHT22;28834;48.720;9.208;2022-08-20T05:46:20;17.70;99.90
43225;DHT22;28834;48.720;9.208;2022-08-20T05:48:47;17.60;99.90
43225;DHT22;28834;48.720;9.208;2022-08-20T05:51:13;17.60;99.90
43225;DHT22;28834;48.720;9.208;2022-08-20T05:53:40;17.60;99.90
43225;DHT22;28834;48.720;9.208;2022-08-20T05:56:06;17.60;99.90
43225;DHT22;28834;48.720;9.208;2022-08-20T05:58:31;17.60;99.90
43225;DHT22;28834;48.720;9.208;2022-08-20T06:00:57;17.50;99.90
43225;DHT22;28834;48.720;9.208;2022-08-20T06:03:23;17.60;99.90
43225;DHT22;28834;48.720;9.208;2022-08-20T06:06:08;17.70;99.90
43225;DHT22;28834;48.720;9.208;2022-08-20T06:08:34;17.70;99.90
43225;DHT22;28834;48.720;9.208;2022-08-20T06:11:00;17.80;99.90
43225;DHT22;28834;48.720;9.208;2022-08-20T06:13:26;17.90;99.90
43225;DHT22;28834;48.720;9.208;2022-08-20T06:15:54;17.90;99.90
43225;DHT22;28834;48.720;9.208;2022-08-20T06:18:19;18.10;99.90
43225;DHT22;28834;48.720;9.208;2022-08-20T06:20:45;18.20;99.90
43225;DHT22;28834;48.720;9.208;2022-08-20T06:23:10;18.30;99.90
43225;DHT22;28834;48.720;9.208;2022-08-20T06:25:36;18.40;99.90
43225;DHT22;28834;48.720;9.208;2022-08-20T06:28:03;18.50;99.90
43225;DHT22;28834;48.720;9.208;2022-08-20T06:30:29;18.60;99.90
43225;DHT22;28834;48.720;9.208;2022-08-20T06:32:55;18.70;99.90
43225;DHT22;28834;48.720;9.208;2022-08-20T06:35:21;18.80;99.90
43225;DHT22;28834;48.720;9.208;2022-08-20T06:37:46;18.90;99.90
43225;DHT22;28834;48.720;9.208;2022-08-20T06:40:21;18.90;99.90
43225;DHT22;28834;48.720;9.208;2022-08-20T06:42:48;19.00;99.90
43225;DHT22;28834;48.720;9.208;2022-08-20T06:45:16;19.00;99.90
43225;DHT22;28834;48.720;9.208;2022-08-20T06:47:43;19.00;99.90
43225;DHT22;28834;48.720;9.208;2022-08-20T06:50:12;19.00;99.90
43225;DHT22;28834;48.720;9.208;2022-08-20T06:52:41;19.00;99.90
43225;DHT22;28834;48.720;9.208;2022-08-20T06:55:09;19.10;99.90
43225;DHT22;28834;48.720;9.208;2022-08-20T06:57:36;19.10;99.90
43225;DHT22;28834;48.720;9.208;2022-08-20T07:00:08;19.00;99.90
43225;DHT22;28834;48.720;9.208;2022-08-20T07:02:34;19.10;99.90
43225;DHT22;28834;48.720;9.208;2022-08-20T07:05:02;19.10;99.90
43225;DHT22;28834;48.720;9.208;2022-08-20T07:07:29;19.20;99.90
43225;DHT22;28834;48.720;9.208;2022-08-20T07:09:59;19.30;99.90
43225;DHT22;28834;48.720;9.208;2022-08-20T07:12:25;19.30;99.90
43225;DHT22;28834;48.720;9.208;2022-08-20T07:14:50;19.30;99.90
43225;DHT22;28834;48.720;9.208;2022-08-20T07:17:16;19.30;99.90
43225;DHT22;28834;48.720;9.208;2022-08-20T07:19:41;19.30;99.90
43225;DHT22;28834;48.720;9.208;2022-08-20T07:22:07;19.40;99.90
43225;DHT22;28834;48.720;9.208;2022-08-20T07:24:33;19.40;99.90
43225;DHT22;28834;48.720;9.208;2022-08-20T07:26:58;19.50;99.90
43225;DHT22;28834;48.720;9.208;2022-08-20T07:29:24;19.50;99.90
43225;DHT22;28834;48.720;9.208;2022-08-20T07:32:09;19.60;99.90
43225;DHT22;28834;48.720;9.208;2022-08-20T07:34:54;19.60;99.90
43225;DHT22;28834;48.720;9.208;2022-08-20T07:37:19;19.60;99.90
43225;DHT22;28834;48.720;9.208;2022-08-20T07:39:48;19.60;99.90
43225;DHT22;28834;48.720;9.208;2022-08-20T07:42:14;19.60;99.90
43225;DHT22;28834;48.720;9.208;2022-08-20T07:44:39;19.60;99.90
43225;DHT22;28834;48.720;9.208;2022-08-20T07:47:05;19.60;99.90
43225;DHT22;28834;48.720;9.208;2022-08-20T07:49:31;19.70;99.90
43225;DHT22;28834;48.720;9.208;2022-08-20T07:51:57;19.70;99.90
43225;DHT22;28834;48.720;9.208;2022-08-20T07:54:22;19.80;99.90
43225;DHT22;28834;48.720;9.208;2022-08-20T07:56:48;19.80;99.90
43225;DHT22;28834;48.720;9.208;2022-08-20T07:59:14;19.90;99.90
43225;DHT22;28834;48.720;9.208;2022-08-20T08:01:39;20.00;99.90
43225;DHT22;28834;48.720;9.208;2022-08-20T08:04:05;20.10;99.90
43225;DHT22;28834;48.720;9.208;2022-08-20T08:06:30;20.10;99.90
43225;DHT22;28834;48.720;9.208;2022-08-20T08:09:05;20.20;99.90
43225;DHT22;28834;48.720;9.208;2022-08-20T08:11:33;20.30;99.90
43225;DHT22;28834;48.720;9.208;2022-08-20T08:14:00;20.40;99.90
43225;DHT22;28834;48.720;9.208;2022-08-20T08:16:27;20.40;99.90
43225;DHT22;28834;48.720;9.208;2022-08-20T08:18:55;20.50;99.90
43225;DHT22;28834;48.720;9.208;2022-08-20T08:21:21;20.70;99.90
43225;DHT22;28834;48.720;9.208;2022-08-20T08:23:47;20.80;99.90
43225;DHT22;28834;48.720;9.208;2022-08-20T08:26:15;20.90;99.90
43225;DHT22;28834;48.720;9.208;2022-08-20T08:28:42;20.90;99.90
43225;DHT22;28834;48.720;9.208;2022-08-20T08:31:11;21.00;99.90
43225;DHT22;28834;48.720;9.208;2022-08-20T08:33:37;21.10;99.90
43225;DHT22;28834;48.720;9.208;2022-08-20T08:36:07;21.10;99.90
43225;DHT22;28834;48.720;9.208;2022-08-20T08:38:39;21.20;99.90
43225;DHT22;28834;48.720;9.208;2022-08-20T08:46:30;21.50;99.90
43225;DHT22;28834;48.720;9.208;2022-08-20T08:48:59;21.60;99.90
43225;DHT22;28834;48.720;9.208;2022-08-20T08:51:38;21.80;99.90
43225;DHT22;28834;48.720;9.208;2022-08-20T08:54:06;22.10;99.90
43225;DHT22;28834;48.720;9.208;2022-08-20T08:56:33;22.30;99.90
43225;DHT22;28834;48.720;9.208;2022-08-20T08:59:07;22.60;99.90
43225;DHT22;28834;48.720;9.208;2022-08-20T09:01:44;22.90;99.90
43225;DHT22;28834;48.720;9.208;2022-08-20T09:04:12;22.80;99.90
43225;DHT22;28834;48.720;9.208;2022-08-20T09:06:38;22.80;99.90
43225;DHT22;28834;48.720;9.208;2022-08-20T09:09:05;22.60;99.90
43225;DHT22;28834;48.720;9.208;2022-08-20T09:11:44;22.50;99.90
43225;DHT22;28834;48.720;9.208;2022-08-20T09:14:10;22.60;99.90
43225;DHT22;28834;48.720;9.208;2022-08-20T09:16:37;22.80;99.90
43225;DHT22;28834;48.720;9.208;2022-08-20T09:19:02;22.70;99.90
43225;DHT22;28834;48.720;9.208;2022-08-20T09:21:29;22.50;99.90
43225;DHT22;28834;48.720;9.208;2022-08-20T09:23:54;22.30;99.90
43225;DHT22;28834;48.720;9.208;2022-08-20T09:26:20;22.20;99.90
43225;DHT22;28834;48.720;9.208;2022-08-20T09:28:45;22.10;99.90
43225;DHT22;28834;48.720;9.208;2022-08-20T09:31:11;22.00;99.90
43225;DHT22;28834;48.720;9.208;2022-08-20T09:33:36;21.90;99.90
43225;DHT22;28834;48.720;9.208;2022-08-20T09:36:02;21.70;99.90
43225;DHT22;28834;48.720;9.208;2022-08-20T09:38:27;21.50;99.90
43225;DHT22;28834;48.720;9.208;2022-08-20T09:40:53;21.30;99.90
43225;DHT22;28834;48.720;9.208;2022-08-20T09:43:19;21.20;99.90
43225;DHT22;28834;48.720;9.208;2022-08-20T09:45:44;21.10;99.90
43225;DHT22;28834;48.720;9.208;2022-08-20T09:48:10;21.00;99.90
43225;DHT22;28834;48.720;9.208;2022-08-20T09:50:36;20.90;99.90
43225;DHT22;28834;48.720;9.208;2022-08-20T09:53:04;20.90;99.90
43225;DHT22;28834;48.720;9.208;2022-08-20T09:55:34;20.90;99.90
43225;DHT22;28834;48.720;9.208;2022-08-20T09:58:51;20.80;99.90
43225;DHT22;28834;48.720;9.208;2022-08-20T10:00:51;20.80;99.90
43225;DHT22;28834;48.720;9.208;2022-08-20T10:03:17;20.90;99.90
43225;DHT22;28834;48.720;9.208;2022-08-20T10:05:42;20.90;99.90
43225;DHT22;28834;48.720;9.208;2022-08-20T10:08:09;21.00;99.90
43225;DHT22;28834;48.720;9.208;2022-08-20T10:10:36;21.10;99.90
43225;DHT22;28834;48.720;9.208;2022-08-20T10:13:02;21.20;99.90
43225;DHT22;28834;48.720;9.208;2022-08-20T10:15:28;21.50;99.90
43225;DHT22;28834;48.720;9.208;2022-08-20T10:17:54;21.60;99.90
43225;DHT22;28834;48.720;9.208;2022-08-20T10:20:22;21.70;99.90
43225;DHT22;28834;48.720;9.208;2022-08-20T10:22:47;21.60;99.90
43225;DHT22;28834;48.720;9.208;2022-08-20T10:25:13;21.50;99.90
43225;DHT22;28834;48.720;9.208;2022-08-20T10:27:40;21.40;99.90
43225;DHT22;28834;48.720;9.208;2022-08-20T10:30:06;21.30;99.90
43225;DHT22;28834;48.720;9.208;2022-08-20T10:32:32;21.20;99.90
43225;DHT22;28834;48.720;9.208;2022-08-20T10:34:58;21.10;99.90
43225;DHT22;28834;48.720;9.208;2022-08-20T10:37:24;21.00;99.90
43225;DHT22;28834;48.720;9.208;2022-08-20T10:39:50;21.20;99.90
43225;DHT22;28834;48.720;9.208;2022-08-20T10:42:16;21.40;99.90
43225;DHT22;28834;48.720;9.208;2022-08-20T10:44:42;21.60;99.90
43225;DHT22;28834;48.720;9.208;2022-08-20T10:47:22;21.90;99.90
43225;DHT22;28834;48.720;9.208;2022-08-20T10:49:51;22.20;99.90
43225;DHT22;28834;48.720;9.208;2022-08-20T10:52:18;22.30;99.90
43225;DHT22;28834;48.720;9.208;2022-08-20T10:54:44;22.00;99.90
43225;DHT22;28834;48.720;9.208;2022-08-20T10:57:15;21.80;99.90
43225;DHT22;28834;48.720;9.208;2022-08-20T10:59:43;21.60;99.90
43225;DHT22;28834;48.720;9.208;2022-08-20T11:02:09;21.50;99.90
43225;DHT22;28834;48.720;9.208;2022-08-20T11:04:35;21.40;99.90
43225;DHT22;28834;48.720;9.208;2022-08-20T11:07:25;21.40;99.90
43225;DHT22;28834;48.720;9.208;2022-08-20T11:09:51;21.30;99.90
43225;DHT22;28834;48.720;9.208;2022-08-20T11:12:19;21.30;99.90
43225;DHT22;28834;48.720;9.208;2022-08-20T11:14:46;21.20;99.90
43225;DHT22;28834;48.720;9.208;2022-08-20T11:17:12;21.10;99.90
43225;DHT22;28834;48.720;9.208;2022-08-20T11:19:40;21.10;99.90
43225;DHT22;28834;48.720;9.208;2022-08-20T11:22:06;21.00;99.90
43225;DHT22;28834;48.720;9.208;2022-08-20T11:24:32;20.90;99.90
43225;DHT22;28834;48.720;9.208;2022-08-20T11:26:58;20.80;99.90
43225;DHT22;28834;48.720;9.208;2022-08-20T11:29:23;20.80;99.90
43225;DHT22;28834;48.720;9.208;2022-08-20T11:31:49;20.80;99.90
43225;DHT22;28834;48.720;9.208;2022-08-20T11:34:15;20.80;99.90
43225;DHT22;28834;48.720;9.208;2022-08-20T11:36:41;20.90;99.90
43225;DHT22;28834;48.720;9.208;2022-08-20T11:39:07;20.90;99.90
43225;DHT22;28834;48.720;9.208;2022-08-20T11:41:33;20.80;99.90
43225;DHT22;28834;48.720;9.208;2022-08-20T11:43:58;20.90;99.90
43225;DHT22;28834;48.720;9.208;2022-08-20T11:46:24;20.80;99.90
43225;DHT22;28834;48.720;9.208;2022-08-20T11:48:49;20.80;99.90
43225;DHT22;28834;48.720;9.208;2022-08-20T11:51:15;20.70;99.90
43225;DHT22;28834;48.720;9.208;2022-08-20T11:53:40;20.70;99.90
43225;DHT22;28834;48.720;9.208;2022-08-20T11:56:06;20.70;99.90
43225;DHT22;28834;48.720;9.208;2022-08-20T11:58:32;20.80;99.90
43225;DHT22;28834;48.720;9.208;2022-08-20T12:00:58;20.80;99.90
43225;DHT22;28834;48.720;9.208;2022-08-20T12:03:23;20.80;99.90
43225;DHT22;28834;48.720;9.208;2022-08-20T12:05:49;20.80;99.90
43225;DHT22;28834;48.720;9.208;2022-08-20T12:08:15;20.80;99.90
43225;DHT22;28834;48.720;9.208;2022-08-20T12:10:41;20.80;99.90
43225;DHT22;28834;48.720;9.208;2022-08-20T12:13:06;20.80;99.90
43225;DHT22;28834;48.720;9.208;2022-08-20T12:15:36;20.80;99.90
43225;DHT22;28834;48.720;9.208;2022-08-20T12:18:06;20.80;99.90
43225;DHT22;28834;48.720;9.208;2022-08-20T12:20:32;20.90;99.90
43225;DHT22;28834;48.720;9.208;2022-08-20T12:22:58;20.90;99.90
43225;DHT22;28834;48.720;9.208;2022-08-20T12:25:24;20.90;99.90
43225;DHT22;28834;48.720;9.208;2022-08-20T12:27:50;20.90;99.90
43225;DHT22;28834;48.720;9.208;2022-08-20T12:30:19;20.90;99.90
43225;DHT22;28834;48.720;9.208;2022-08-20T12:32:45;20.90;99.90
43225;DHT22;28834;48.720;9.208;2022-08-20T12:35:12;21.00;99.90
43225;DHT22;28834;48.720;9.208;2022-08-20T12:37:38;21.10;99.90
43225;DHT22;28834;48.720;9.208;2022-08-20T12:40:08;21.10;99.90
43225;DHT22;28834;48.720;9.208;2022-08-20T12:42:35;21.20;99.90
43225;DHT22;28834;48.720;9.208;2022-08-20T12:45:00;21.30;99.90
43225;DHT22;28834;48.720;9.208;2022-08-20T12:47:32;21.40;99.90
43225;DHT22;28834;48.720;9.208;2022-08-20T12:50:00;21.50;99.90
43225;DHT22;28834;48.720;9.208;2022-08-20T12:52:28;21.60;99.90
43225;DHT22;28834;48.720;9.208;2022-08-20T12:54:54;21.80;99.90
43225;DHT22;28834;48.720;9.208;2022-08-20T12:57:26;22.00;99.90
43225;DHT22;28834;48.720;9.208;2022-08-20T12:59:54;22.20;99.90
43225;DHT22;28834;48.720;9.208;2022-08-20T13:02:19;22.30;99.90
43225;DHT22;28834;48.720;9.208;2022-08-20T13:04:45;22.30;99.90
43225;DHT22;28834;48.720;9.208;2022-08-20T13:07:12;22.40;99.90
43225;DHT22;28834;48.720;9.208;2022-08-20T13:09:38;22.50;99.90
43225;DHT22;28834;48.720;9.208;2022-08-20T13:12:05;22.50;99.90
43225;DHT22;28834;48.720;9.208;2022-08-20T13:14:30;22.30;99.90
43225;DHT22;28834;48.720;9.208;2022-08-20T13:16:58;22.10;99.90
43225;DHT22;28834;48.720;9.208;2022-08-20T13:19:24;21.60;99.90
43225;DHT22;28834;48.720;9.208;2022-08-20T13:21:51;21.10;99.90
43225;DHT22;28834;48.720;9.208;2022-08-20T13:24:17;20.70;99.90
43225;DHT22;28834;48.720;9.208;2022-08-20T13:26:43;20.40;99.90
43225;DHT22;28834;48.720;9.208;2022-08-20T13:29:09;20.20;99.90
43225;DHT22;28834;48.720;9.208;2022-08-20T13:31:34;20.10;99.90
43225;DHT22;28834;48.720;9.208;2022-08-20T13:34:00;20.10;99.90
43225;DHT22;28834;48.720;9.208;2022-08-20T13:36:25;20.10;99.90
43225;DHT22;28834;48.720;9.208;2022-08-20T13:38:51;20.10;99.90
43225;DHT22;28834;48.720;9.208;2022-08-20T13:41:17;20.10;99.90
43225;DHT22;28834;48.720;9.208;2022-08-20T13:43:42;19.90;99.90
43225;DHT22;28834;48.720;9.208;2022-08-20T13:46:08;19.80;99.90
43225;DHT22;28834;48.720;9.208;2022-08-20T13:48:33;19.70;99.90
43225;DHT22;28834;48.720;9.208;2022-08-20T13:50:59;19.70;99.90
43225;DHT22;28834;48.720;9.208;2022-08-20T13:53:25;19.60;99.90
43225;DHT22;28834;48.720;9.208;2022-08-20T13:55:51;19.70;99.90
43225;DHT22;28834;48.720;9.208;2022-08-20T13:58:16;19.70;99.90
43225;DHT22;28834;48.720;9.208;2022-08-20T14:00:43;19.70;99.90
43225;DHT22;28834;48.720;9.208;2022-08-20T14:03:09;19.90;99.90
43225;DHT22;28834;48.720;9.208;2022-08-20T14:05:35;20.00;99.90
43225;DHT22;28834;48.720;9.208;2022-08-20T14:08:13;20.30;99.90
43225;DHT22;28834;48.720;9.208;2022-08-20T14:10:40;20.40;99.90
43225;DHT22;28834;48.720;9.208;2022-08-20T14:13:06;20.40;99.90
43225;DHT22;28834;48.720;9.208;2022-08-20T14:15:33;20.50;99.90
43225;DHT22;28834;48.720;9.208;2022-08-20T14:17:59;20.70;99.90
43225;DHT22;28834;48.720;9.208;2022-08-20T14:20:28;20.70;99.90
43225;DHT22;28834;48.720;9.208;2022-08-20T14:22:54;20.60;99.90
43225;DHT22;28834;48.720;9.208;2022-08-20T14:25:21;20.50;99.90
43225;DHT22;28834;48.720;9.208;2022-08-20T14:27:47;20.40;99.90
43225;DHT22;28834;48.720;9.208;2022-08-20T14:30:17;20.50;99.90
43225;DHT22;28834;48.720;9.208;2022-08-20T14:32:43;20.70;99.90
43225;DHT22;28834;48.720;9.208;2022-08-20T14:35:09;20.80;99.90
43225;DHT22;28834;48.720;9.208;2022-08-20T14:37:38;21.00;99.90
43225;DHT22;28834;48.720;9.208;2022-08-20T14:40:07;21.30;99.90
43225;DHT22;28834;48.720;9.208;2022-08-20T14:42:33;21.50;99.90
43225;DHT22;28834;48.720;9.208;2022-08-20T14:44:59;21.90;99.90
43225;DHT22;28834;48.720;9.208;2022-08-20T14:47:29;22.10;99.90
43225;DHT22;28834;48.720;9.208;2022-08-20T14:49:58;22.20;99.90
43225;DHT22;28834;48.720;9.208;2022-08-20T14:52:29;22.20;99.90
43225;DHT22;28834;48.720;9.208;2022-08-20T14:54:55;22.30;99.90
43225;DHT22;28834;48.720;9.208;2022-08-20T14:57:21;22.40;99.90
43225;DHT22;28834;48.720;9.208;2022-08-20T14:59:47;22.60;99.90
43225;DHT22;28834;48.720;9.208;2022-08-20T15:02:15;22.80;99.90
43225;DHT22;28834;48.720;9.208;2022-08-20T15:04:41;22.90;99.90
43225;DHT22;28834;48.720;9.208;2022-08-20T15:07:14;23.00;99.90
43225;DHT22;28834;48.720;9.208;2022-08-20T15:09:40;23.10;99.90
43225;DHT22;28834;48.720;9.208;2022-08-20T15:12:06;23.10;99.90
43225;DHT22;28834;48.720;9.208;2022-08-20T15:14:31;23.30;99.90
43225;DHT22;28834;48.720;9.208;2022-08-20T15:16:57;23.30;99.90
43225;DHT22;28834;48.720;9.208;2022-08-20T15:19:22;23.40;99.90
43225;DHT22;28834;48.720;9.208;2022-08-20T15:21:48;23.60;99.90
43225;DHT22;28834;48.720;9.208;2022-08-20T15:24:15;23.70;99.90
43225;DHT22;28834;48.720;9.208;2022-08-20T15:26:41;23.80;99.90
43225;DHT22;28834;48.720;9.208;2022-08-20T15:29:06;23.80;99.90
43225;DHT22;28834;48.720;9.208;2022-08-20T15:31:32;23.90;99.90
43225;DHT22;28834;48.720;9.208;2022-08-20T15:33:58;24.10;99.90
43225;DHT22;28834;48.720;9.208;2022-08-20T15:36:23;24.00;99.90
43225;DHT22;28834;48.720;9.208;2022-08-20T15:38:49;23.80;99.90
43225;DHT22;28834;48.720;9.208;2022-08-20T15:41:15;23.40;99.90
43225;DHT22;28834;48.720;9.208;2022-08-20T15:43:40;23.10;99.90